Time;durP1;ratioP1;P1;durP2;ratioP2;P2;SDS_P1;SDS_P2;PMS_P1;PMS_P2;Temp;Humidity;BMP_temperature;BMP_pressure;BME280_temperature;BME280_humidity;BME280_pressure;Samples;Min_cycle;Max_cycle;Signal;HPM_P1;HPM_P2
2023/04/29 00:01:06;;;;;;;38.20;22.90;;;13.30;71.00;;;;;;5073741;28;20492;-75
2023/04/29 00:03:32;;;;;;;40.47;24.35;;;13.10;70.80;;;;;;5073622;28;20391;-74
2023/04/29 00:05:58;;;;;;;44.90;25.92;;;13.00;71.50;;;;;;5055965;28;20407;-74
2023/04/29 00:08:24;;;;;;;46.75;25.95;;;13.00;72.90;;;;;;5056277;28;20873;-73
2023/04/29 00:10:50;;;;;;;53.27;27.97;;;13.00;73.20;;;;;;5055513;28;20489;-74
2023/04/29 00:13:16;;;;;;;55.95;31.25;;;13.00;75.00;;;;;;5054871;28;20922;-75
2023/04/29 00:15:42;;;;;;;55.05;32.10;;;12.90;77.40;;;;;;5072918;28;20379;-73
2023/04/29 00:18:08;;;;;;;52.07;29.33;;;12.80;79.30;;;;;;5073281;28;20898;-73
2023/04/29 00:20:33;;;;;;;62.15;33.78;;;12.80;80.30;;;;;;5072719;28;20406;-73
2023/04/29 00:22:59;;;;;;;64.47;35.00;;;12.80;81.70;;;;;;5073063;28;20462;-77
2023/04/29 00:25:25;;;;;;;62.53;35.00;;;12.70;84.00;;;;;;5073037;28;20620;-74
2023/04/29 00:27:50;;;;;;;69.30;38.13;;;12.60;87.10;;;;;;5073893;28;20379;-74
2023/04/29 00:30:16;;;;;;;74.03;39.70;;;12.50;88.80;;;;;;5072800;28;20380;-74
2023/04/29 00:32:43;;;;;;;81.87;42.30;;;12.60;92.10;;;;;;5072183;28;20402;-75
2023/04/29 00:35:09;;;;;;;83.38;42.95;;;12.40;94.80;;;;;;5054569;28;20399;-77
2023/04/29 00:37:35;;;;;;;82.68;41.78;;;12.50;97.70;;;;;;5072542;28;20896;-75
2023/04/29 00:40:00;;;;;;;85.15;43.55;;;12.50;99.50;;;;;;5072362;28;20752;-75
2023/04/29 00:42:27;;;;;;;93.60;43.15;;;12.30;99.90;;;;;;5053837;28;21064;-75
2023/04/29 00:44:52;;;;;;;98.07;46.22;;;12.20;99.90;;;;;;5072471;28;20433;-75
2023/04/29 00:47:18;;;;;;;103.65;45.78;;;12.00;99.90;;;;;;5072182;28;20466;-73
2023/04/29 00:49:44;;;;;;;112.47;47.67;;;11.70;99.90;;;;;;5072599;28;20383;-74
2023/04/29 00:52:12;;;;;;;121.97;53.03;;;11.60;99.90;;;;;;5073472;28;20384;-74
2023/04/29 00:54:38;;;;;;;130.73;52.72;;;11.60;99.90;;;;;;5054592;28;20553;-72
2023/04/29 00:57:05;;;;;;;137.93;54.92;;;11.50;99.90;;;;;;5054903;28;20926;-75
2023/04/29 00:59:32;;;;;;;124.00;51.85;;;11.50;99.90;;;;;;5072665;28;20412;-75
2023/04/29 01:02:02;;;;;;;137.38;61.35;;;11.50;99.90;;;;;;5071658;28;20379;-75
2023/04/29 01:04:28;;;;;;;143.90;60.08;;;11.50;99.90;;;;;;5071918;28;20438;-74
2023/04/29 01:06:57;;;;;;;119.72;50.67;;;11.60;99.90;;;;;;5071841;28;20403;-75
2023/04/29 01:09:46;;;;;;;115.10;48.10;;;11.60;99.90;;;;;;5071837;28;20376;-74
2023/04/29 01:12:25;;;;;;;126.15;53.13;;;11.60;99.90;;;;;;5071446;28;20399;-73
2023/04/29 01:15:15;;;;;;;130.10;52.45;;;11.50;99.90;;;;;;5071706;28;20376;-72
2023/04/29 01:17:46;;;;;;;136.03;58.33;;;11.50;99.90;;;;;;5071733;28;20399;-74
2023/04/29 01:20:13;;;;;;;131.57;55.13;;;11.60;99.90;;;;;;5071616;28;20395;-73
2023/04/29 01:22:39;;;;;;;126.45;54.03;;;11.60;99.90;;;;;;5071338;28;20469;-74
2023/04/29 01:25:05;;;;;;;132.40;57.73;;;11.60;99.90;;;;;;5071899;28;20450;-74
2023/04/29 01:27:55;;;;;;;136.48;58.70;;;11.60;99.90;;;;;;5082381;28;20384;-73
2023/04/29 01:30:46;;;;;;;108.43;44.50;;;11.70;99.90;;;;;;5090168;28;20391;-73
2023/04/29 01:33:49;;;;;;;105.13;41.63;;;11.60;99.90;;;;;;5084217;28;20426;-72
2023/04/29 01:36:38;;;;;;;129.30;50.03;;;11.40;99.90;;;;;;5081410;28;20380;-72
2023/04/29 01:39:31;;;;;;;137.75;53.00;;;11.30;99.90;;;;;;5064775;28;20456;-73
2023/04/29 01:42:05;;;;;;;150.82;59.10;;;11.30;99.90;;;;;;5083081;28;20413;-72
2023/04/29 01:44:32;;;;;;;169.05;63.50;;;11.20;99.90;;;;;;5067623;28;20395;-73
2023/04/29 01:47:00;;;;;;;177.63;62.30;;;11.10;99.90;;;;;;5085417;28;20418;-73
2023/04/29 01:49:26;;;;;;;179.53;58.87;;;11.10;99.90;;;;;;5083889;28;20744;-73
2023/04/29 01:51:52;;;;;;;177.25;59.05;;;11.10;99.90;;;;;;5083936;28;20379;-74
2023/04/29 01:54:17;;;;;;;175.80;62.53;;;11.00;99.90;;;;;;5085337;28;20418;-73
2023/04/29 01:56:44;;;;;;;189.75;65.57;;;11.00;99.90;;;;;;5085085;28;20463;-73
2023/04/29 01:59:09;;;;;;;131.02;45.95;;;11.00;99.90;;;;;;5078647;28;20398;-72
2023/04/29 02:01:35;;;;;;;155.38;58.17;;;11.00;99.90;;;;;;5073070;28;20445;-74
2023/04/29 02:04:01;;;;;;;168.90;60.40;;;11.00;99.90;;;;;;5071413;28;20403;-73
2023/04/29 02:06:27;;;;;;;171.23;61.53;;;11.10;99.90;;;;;;5074599;28;20383;-74
2023/04/29 02:08:52;;;;;;;163.60;57.03;;;11.10;99.90;;;;;;5075044;28;20407;-77
2023/04/29 02:11:18;;;;;;;173.55;59.15;;;11.00;99.90;;;;;;5076722;28;20396;-75
2023/04/29 02:13:43;;;;;;;150.17;48.30;;;10.90;99.90;;;;;;5061086;28;20494;-74
2023/04/29 02:16:10;;;;;;;151.37;49.63;;;10.80;99.90;;;;;;5058932;28;20453;-74
2023/04/29 02:18:36;;;;;;;142.77;46.15;;;10.70;99.90;;;;;;5075049;28;20375;-74
2023/04/29 02:21:02;;;;;;;157.57;55.70;;;10.70;99.90;;;;;;5076367;28;20408;-73
2023/04/29 02:23:28;;;;;;;112.18;38.33;;;10.70;99.90;;;;;;5075128;28;20380;-74
2023/04/29 02:25:54;;;;;;;131.82;49.17;;;10.60;99.90;;;;;;5075068;28;20376;-72
2023/04/29 02:28:19;;;;;;;135.20;48.83;;;10.70;99.90;;;;;;5072231;28;20392;-73
2023/04/29 02:30:45;;;;;;;126.63;42.95;;;10.70;99.90;;;;;;5072729;28;20502;-74
2023/04/29 02:33:11;;;;;;;102.47;36.45;;;10.70;99.90;;;;;;5072688;28;20502;-73
2023/04/29 02:35:36;;;;;;;118.75;45.05;;;10.60;99.90;;;;;;5071386;28;20730;-72
2023/04/29 02:38:02;;;;;;;91.55;35.70;;;10.60;99.90;;;;;;5072759;28;20470;-73
2023/04/29 02:40:27;;;;;;;114.45;41.20;;;10.60;99.90;;;;;;5074871;28;20384;-73
2023/04/29 02:42:53;;;;;;;124.82;40.53;;;10.50;99.90;;;;;;5073225;28;20420;-72
2023/04/29 02:45:18;;;;;;;128.80;48.35;;;10.50;99.90;;;;;;5071685;28;20835;-74
2023/04/29 02:47:44;;;;;;;124.70;41.47;;;10.50;99.90;;;;;;5071855;28;20740;-72
2023/04/29 02:50:09;;;;;;;124.93;45.58;;;10.50;99.90;;;;;;5052836;28;20384;-74
2023/04/29 02:52:35;;;;;;;130.40;45.40;;;10.50;99.90;;;;;;5070801;28;20868;-74
2023/04/29 02:55:01;;;;;;;117.70;43.88;;;10.50;99.90;;;;;;5071414;28;20380;-74
2023/04/29 02:57:28;;;;;;;124.57;44.80;;;10.40;99.90;;;;;;5071602;28;20395;-73
2023/04/29 02:59:54;;;;;;;127.07;43.47;;;10.40;99.90;;;;;;5071201;28;20387;-74
2023/04/29 03:02:19;;;;;;;130.30;45.90;;;10.30;99.90;;;;;;5070720;28;20395;-73
2023/04/29 03:04:45;;;;;;;137.97;48.40;;;10.30;99.90;;;;;;5073754;28;20400;-72
2023/04/29 03:07:11;;;;;;;136.43;45.90;;;10.30;99.90;;;;;;5074664;28;20383;-73
2023/04/29 03:09:36;;;;;;;140.00;50.55;;;10.30;99.90;;;;;;5075058;28;20709;-72
2023/04/29 03:12:02;;;;;;;151.27;51.95;;;10.30;99.90;;;;;;5073474;28;20744;-73
2023/04/29 03:14:28;;;;;;;156.30;51.13;;;10.20;99.90;;;;;;5060222;28;20396;-74
2023/04/29 03:16:55;;;;;;;154.88;50.35;;;10.30;99.90;;;;;;5091985;28;20410;-72
2023/04/29 03:19:20;;;;;;;163.68;53.72;;;10.20;99.90;;;;;;5068325;28;20388;-73
2023/04/29 03:21:46;;;;;;;170.33;53.33;;;10.20;99.90;;;;;;5073214;28;20386;-73
2023/04/29 03:24:12;;;;;;;150.00;50.53;;;10.20;99.90;;;;;;5074102;28;20494;-73
2023/04/29 03:26:37;;;;;;;150.27;49.37;;;10.20;99.90;;;;;;5074366;28;20773;-74
2023/04/29 03:29:03;;;;;;;149.27;51.93;;;10.20;99.90;;;;;;5075394;28;20437;-75
2023/04/29 03:31:28;;;;;;;150.10;52.10;;;10.10;99.90;;;;;;5074617;28;20395;-74
2023/04/29 03:33:54;;;;;;;151.13;48.83;;;10.10;99.90;;;;;;5074402;28;20860;-72
2023/04/29 03:36:20;;;;;;;145.75;49.35;;;10.10;99.90;;;;;;5074031;28;20741;-74
2023/04/29 03:38:45;;;;;;;152.97;52.37;;;10.10;99.90;;;;;;5073825;28;20437;-73
2023/04/29 03:41:11;;;;;;;161.18;54.30;;;10.10;99.90;;;;;;5081980;28;20394;-72
2023/04/29 03:43:36;;;;;;;141.67;50.10;;;10.10;99.90;;;;;;5093395;28;20419;-73
2023/04/29 03:46:02;;;;;;;146.38;47.90;;;10.10;99.90;;;;;;5095574;28;20368;-72
2023/04/29 03:48:28;;;;;;;146.32;51.75;;;10.10;99.90;;;;;;5091365;28;20825;-75
2023/04/29 03:50:54;;;;;;;135.35;49.65;;;10.10;99.90;;;;;;5073446;28;20403;-75
2023/04/29 03:53:20;;;;;;;133.47;47.03;;;10.00;99.90;;;;;;5073992;28;20422;-75
2023/04/29 03:55:47;;;;;;;147.00;50.03;;;10.00;99.90;;;;;;5073994;28;20452;-74
2023/04/29 03:58:13;;;;;;;142.60;49.00;;;10.10;99.90;;;;;;5073781;28;20677;-72
2023/04/29 04:00:39;;;;;;;149.00;51.13;;;10.00;99.90;;;;;;5074361;28;20376;-73
2023/04/29 04:03:04;;;;;;;135.55;46.05;;;10.10;99.90;;;;;;5073026;28;20383;-73
2023/04/29 04:05:30;;;;;;;142.35;51.58;;;10.00;99.90;;;;;;5073543;28;20930;-73
2023/04/29 04:07:55;;;;;;;112.95;40.30;;;10.10;99.90;;;;;;5074575;28;20379;-74
2023/04/29 04:10:21;;;;;;;103.60;36.83;;;10.00;99.90;;;;;;5074049;28;20399;-73
2023/04/29 04:12:46;;;;;;;107.30;41.53;;;10.00;99.90;;;;;;5073723;28;20376;-73
2023/04/29 04:15:12;;;;;;;106.07;37.67;;;10.00;99.90;;;;;;5073086;28;20388;-73
2023/04/29 04:17:38;;;;;;;87.72;34.05;;;9.90;99.90;;;;;;5073568;28;20391;-72
2023/04/29 04:20:04;;;;;;;98.32;39.03;;;9.90;99.90;;;;;;5074320;28;20445;-73
2023/04/29 04:22:29;;;;;;;108.72;39.25;;;10.00;99.90;;;;;;5055731;28;20488;-72
2023/04/29 04:24:55;;;;;;;102.73;40.00;;;10.00;99.90;;;;;;5074232;28;20435;-73
2023/04/29 04:27:21;;;;;;;89.70;36.92;;;10.00;99.90;;;;;;5073316;28;20467;-74
2023/04/29 04:29:46;;;;;;;96.68;36.88;;;10.00;99.90;;;;;;5073169;28;20819;-73
2023/04/29 04:32:12;;;;;;;98.38;38.78;;;10.00;99.90;;;;;;5072289;28;20383;-74
2023/04/29 04:34:41;;;;;;;91.28;35.58;;;10.00;99.90;;;;;;5073137;28;20380;-73
2023/04/29 04:37:07;;;;;;;90.18;35.53;;;10.00;99.90;;;;;;5072980;28;20892;-73
2023/04/29 04:39:32;;;;;;;81.57;34.00;;;10.10;99.90;;;;;;5073239;28;20384;-73
2023/04/29 04:41:58;;;;;;;84.95;33.15;;;10.10;99.90;;;;;;5072802;28;20472;-74
2023/04/29 04:44:23;;;;;;;84.72;33.30;;;10.00;99.90;;;;;;5073057;28;20404;-73
2023/04/29 04:46:52;;;;;;;77.18;34.25;;;10.00;99.90;;;;;;5071664;28;20395;-73
2023/04/29 04:49:17;;;;;;;79.88;33.20;;;10.10;99.90;;;;;;5072916;28;20383;-74
2023/04/29 04:51:44;;;;;;;67.28;30.25;;;10.10;99.90;;;;;;5072144;28;20380;-73
2023/04/29 04:54:10;;;;;;;70.00;30.60;;;10.10;99.90;;;;;;5073485;28;20387;-74
2023/04/29 04:56:36;;;;;;;66.68;30.15;;;10.10;99.90;;;;;;5072346;28;20724;-72
2023/04/29 04:59:02;;;;;;;69.40;30.10;;;10.10;99.90;;;;;;5072605;28;20981;-73
2023/04/29 05:01:28;;;;;;;72.05;31.08;;;10.10;99.90;;;;;;5071723;28;20397;-73
2023/04/29 05:03:53;;;;;;;76.03;34.57;;;10.10;99.90;;;;;;5073632;28;20494;-74
2023/04/29 05:06:19;;;;;;;74.93;31.27;;;10.10;99.90;;;;;;5074330;28;20380;-74
2023/04/29 05:08:44;;;;;;;63.60;30.20;;;10.20;99.90;;;;;;5073009;28;20439;-73
2023/04/29 05:11:22;;;;;;;74.53;33.43;;;10.10;99.90;;;;;;5071496;28;20437;-73
2023/04/29 05:13:48;;;;;;;72.00;32.95;;;10.10;99.90;;;;;;5072232;28;20384;-74
2023/04/29 05:16:14;;;;;;;79.30;34.47;;;10.20;99.90;;;;;;5071898;28;20791;-73
2023/04/29 05:18:39;;;;;;;71.75;32.80;;;10.20;99.90;;;;;;5071567;28;20418;-75
2023/04/29 05:21:05;;;;;;;61.47;28.45;;;10.30;99.90;;;;;;5071586;28;20884;-72
2023/04/29 05:23:30;;;;;;;72.55;33.22;;;10.30;99.90;;;;;;5071919;28;20880;-73
2023/04/29 05:25:56;;;;;;;62.53;29.38;;;10.20;99.90;;;;;;5071655;28;21073;-73
2023/04/29 05:28:22;;;;;;;68.82;31.27;;;10.30;99.90;;;;;;5070898;28;20380;-74
2023/04/29 05:30:50;;;;;;;61.90;29.52;;;10.30;99.90;;;;;;5071505;28;20375;-73
2023/04/29 05:33:16;;;;;;;62.55;29.95;;;10.20;99.90;;;;;;5053362;28;20380;-72
2023/04/29 05:35:41;;;;;;;65.50;30.80;;;10.20;99.90;;;;;;5059070;28;20402;-72
2023/04/29 05:38:07;;;;;;;61.97;31.05;;;10.20;99.90;;;;;;5082394;28;20394;-73
2023/04/29 05:40:33;;;;;;;65.43;29.70;;;10.20;99.90;;;;;;5084256;28;20402;-74
2023/04/29 05:42:58;;;;;;;62.70;28.33;;;10.20;99.90;;;;;;5087911;28;20466;-73
2023/04/29 05:45:24;;;;;;;62.70;29.38;;;10.30;99.90;;;;;;5080900;28;20408;-75
2023/04/29 05:47:50;;;;;;;57.72;26.83;;;10.30;99.90;;;;;;5075222;28;20425;-73
2023/04/29 05:50:15;;;;;;;60.50;30.25;;;10.30;99.90;;;;;;5073509;28;20459;-74
2023/04/29 05:52:41;;;;;;;64.45;30.38;;;10.40;99.90;;;;;;5072563;28;20394;-73
2023/04/29 05:55:07;;;;;;;63.08;29.50;;;10.50;99.90;;;;;;5075071;28;20386;-74
2023/04/29 05:57:32;;;;;;;59.67;31.17;;;10.50;99.90;;;;;;5078778;28;20856;-73
2023/04/29 05:59:58;;;;;;;56.13;29.60;;;10.60;99.90;;;;;;5077870;28;20381;-74
2023/04/29 06:02:25;;;;;;;57.65;28.80;;;10.70;99.90;;;;;;5072546;28;20467;-74
2023/04/29 06:04:50;;;;;;;47.80;26.55;;;10.80;99.90;;;;;;5072522;28;20404;-73
2023/04/29 06:07:17;;;;;;;56.20;27.70;;;10.80;99.90;;;;;;5075304;28;20380;-72
2023/04/29 06:09:43;;;;;;;54.78;28.25;;;10.80;99.90;;;;;;5082420;28;20384;-74
2023/04/29 06:12:09;;;;;;;52.37;28.60;;;10.80;99.90;;;;;;5087663;28;20493;-72
2023/04/29 06:14:34;;;;;;;52.53;29.55;;;10.90;99.90;;;;;;5069597;28;20383;-74
2023/04/29 06:17:00;;;;;;;52.22;27.45;;;11.10;99.90;;;;;;5087305;28;20403;-74
2023/04/29 06:19:26;;;;;;;56.08;28.35;;;11.00;97.40;;;;;;5086740;28;20458;-73
2023/04/29 06:21:51;;;;;;;50.57;27.20;;;11.00;98.30;;;;;;5085620;28;20413;-74
2023/04/29 06:24:17;;;;;;;51.10;26.73;;;10.90;98.80;;;;;;5086671;28;20486;-73
2023/04/29 06:26:43;;;;;;;52.87;27.53;;;10.70;99.20;;;;;;5087180;28;20443;-73
2023/04/29 06:29:08;;;;;;;56.60;26.97;;;10.60;99.90;;;;;;5083665;28;20437;-73
2023/04/29 06:31:34;;;;;;;53.47;28.02;;;10.60;98.60;;;;;;5077808;28;20380;-74
2023/04/29 06:33:59;;;;;;;54.33;29.33;;;10.60;99.70;;;;;;5078366;28;20384;-73
2023/04/29 06:36:26;;;;;;;61.33;29.02;;;10.70;98.80;;;;;;5077371;28;20399;-73
2023/04/29 06:38:51;;;;;;;60.60;30.70;;;10.70;97.90;;;;;;5080512;28;20418;-75
2023/04/29 06:41:17;;;;;;;53.25;28.92;;;10.70;97.20;;;;;;5083290;28;20392;-73
2023/04/29 06:43:43;;;;;;;51.85;28.13;;;10.70;96.70;;;;;;5080411;28;20483;-73
2023/04/29 06:46:09;;;;;;;54.67;28.08;;;10.70;96.50;;;;;;5075789;28;20748;-73
2023/04/29 06:48:35;;;;;;;53.20;29.35;;;10.70;97.80;;;;;;5059111;28;20471;-73
2023/04/29 06:51:01;;;;;;;53.13;26.63;;;10.80;98.90;;;;;;5059814;28;20418;-74
2023/04/29 06:53:26;;;;;;;44.45;23.85;;;10.70;95.60;;;;;;5075982;28;20889;-73
2023/04/29 06:55:52;;;;;;;48.60;25.20;;;10.70;95.90;;;;;;5076570;28;20435;-74
2023/04/29 06:58:18;;;;;;;43.78;25.55;;;10.70;96.80;;;;;;5076697;28;20380;-73
2023/04/29 07:00:46;;;;;;;45.83;25.45;;;10.70;97.60;;;;;;5079730;28;20522;-74
2023/04/29 07:03:12;;;;;;;45.33;26.00;;;10.80;95.90;;;;;;5079462;28;20402;-73
2023/04/29 07:05:44;;;;;;;52.47;26.20;;;10.80;94.20;;;;;;5079081;28;20406;-72
2023/04/29 07:08:11;;;;;;;43.00;23.52;;;10.90;95.00;;;;;;5078597;28;20380;-73
2023/04/29 07:10:37;;;;;;;46.67;24.58;;;10.90;90.10;;;;;;5077558;28;20384;-73
2023/04/29 07:13:03;;;;;;;45.87;24.80;;;10.80;91.00;;;;;;5078678;28;20448;-74
2023/04/29 07:15:35;;;;;;;47.90;24.90;;;10.90;92.30;;;;;;5060913;28;20387;-75
2023/04/29 07:18:04;;;;;;;48.28;25.42;;;10.90;93.50;;;;;;5077061;28;20530;-74
2023/04/29 07:20:29;;;;;;;38.97;22.83;;;11.00;92.10;;;;;;5076236;28;20720;-76
2023/04/29 07:22:55;;;;;;;39.90;22.57;;;11.00;90.20;;;;;;5056573;28;20410;-75
2023/04/29 07:25:21;;;;;;;39.10;21.15;;;11.10;89.20;;;;;;5075637;28;20435;-75
2023/04/29 07:27:47;;;;;;;44.97;23.95;;;10.90;87.10;;;;;;5074376;28;20771;-75
2023/04/29 07:30:13;;;;;;;41.10;23.10;;;10.90;88.80;;;;;;5057252;28;20459;-74
2023/04/29 07:32:38;;;;;;;43.97;24.90;;;10.90;89.50;;;;;;5073836;28;20884;-74
2023/04/29 07:35:04;;;;;;;41.37;23.33;;;10.90;91.10;;;;;;5074817;28;20391;-74
2023/04/29 07:37:30;;;;;;;45.13;24.67;;;10.90;88.70;;;;;;5073946;28;20825;-73
2023/04/29 07:39:55;;;;;;;42.75;23.77;;;10.90;89.30;;;;;;5073973;28;20803;-74
2023/04/29 07:42:21;;;;;;;42.85;23.73;;;10.90;90.00;;;;;;5073707;28;20772;-74
2023/04/29 07:44:46;;;;;;;42.10;23.23;;;10.90;89.90;;;;;;5075795;28;20741;-73
2023/04/29 07:47:12;;;;;;;44.47;24.27;;;11.00;88.50;;;;;;5075566;28;20433;-75
2023/04/29 07:49:38;;;;;;;41.80;25.08;;;10.90;89.20;;;;;;5056352;28;20465;-73
2023/04/29 07:52:04;;;;;;;43.65;24.20;;;11.00;89.80;;;;;;5075352;28;20429;-74
2023/04/29 07:54:29;;;;;;;39.35;21.98;;;11.10;87.70;;;;;;5078917;28;20415;-73
2023/04/29 07:56:57;;;;;;;40.37;23.63;;;11.00;85.10;;;;;;5092725;28;20391;-74
2023/04/29 07:59:23;;;;;;;44.75;24.83;;;11.10;86.90;;;;;;5090044;28;20384;-74
2023/04/29 08:01:48;;;;;;;48.70;24.43;;;11.20;86.40;;;;;;5072239;28;20418;-74
2023/04/29 08:04:14;;;;;;;38.90;23.70;;;11.40;84.30;;;;;;5074254;28;20418;-74
2023/04/29 08:06:40;;;;;;;43.28;23.70;;;11.60;82.60;;;;;;5073773;28;20382;-74
2023/04/29 08:09:06;;;;;;;38.40;22.52;;;11.50;79.70;;;;;;5073670;28;20380;-74
2023/04/29 08:11:32;;;;;;;39.28;23.00;;;11.50;80.30;;;;;;5081712;28;20451;-72
2023/04/29 08:13:58;;;;;;;40.50;22.95;;;11.50;80.00;;;;;;5074630;28;20383;-73
2023/04/29 08:16:25;;;;;;;37.13;24.90;;;11.50;80.40;;;;;;5088850;28;20471;-75
2023/04/29 08:18:51;;;;;;;41.33;24.98;;;11.60;81.00;;;;;;5075418;28;20441;-73
2023/04/29 08:21:18;;;;;;;39.65;23.23;;;11.60;80.40;;;;;;5054419;28;20387;-72
2023/04/29 08:23:44;;;;;;;42.42;23.88;;;11.50;79.40;;;;;;5073218;28;20430;-74
2023/04/29 08:26:11;;;;;;;43.78;26.38;;;11.40;81.10;;;;;;5073046;28;20407;-74
2023/04/29 08:28:37;;;;;;;46.63;26.80;;;11.40;83.10;;;;;;5073729;28;20897;-73
2023/04/29 08:31:05;;;;;;;49.17;27.13;;;11.40;81.10;;;;;;5073335;28;20466;-75
2023/04/29 08:33:32;;;;;;;45.90;26.40;;;11.50;80.40;;;;;;5054748;28;20384;-74
2023/04/29 08:36:02;;;;;;;45.95;26.83;;;11.40;78.60;;;;;;5072849;28;20380;-74
2023/04/29 08:38:28;;;;;;;48.65;27.08;;;11.40;79.90;;;;;;5079718;28;20379;-75
2023/04/29 08:40:55;;;;;;;44.78;27.30;;;11.30;79.00;;;;;;5083441;28;20383;-76
2023/04/29 08:43:21;;;;;;;48.05;28.30;;;11.30;80.50;;;;;;5080865;28;20403;-73
2023/04/29 08:45:50;;;;;;;50.38;27.80;;;11.30;81.20;;;;;;5073695;28;20411;-73
2023/04/29 08:48:16;;;;;;;52.80;29.05;;;11.20;82.00;;;;;;5074588;28;20943;-74
2023/04/29 08:50:42;;;;;;;55.05;31.48;;;11.20;83.50;;;;;;5075201;28;20395;-73
2023/04/29 08:53:10;;;;;;;55.17;30.73;;;11.20;83.10;;;;;;5074327;28;20383;-73
2023/04/29 08:55:43;;;;;;;51.78;29.38;;;11.10;83.60;;;;;;5074924;28;20402;-73
2023/04/29 08:58:10;;;;;;;57.10;32.78;;;11.20;83.60;;;;;;5072744;28;20384;-75
2023/04/29 09:00:37;;;;;;;56.78;30.50;;;11.20;83.80;;;;;;5054880;28;20416;-73
2023/04/29 09:03:15;;;;;;;58.03;30.70;;;11.20;83.00;;;;;;5071239;28;20471;-73
2023/04/29 09:05:42;;;;;;;52.17;29.55;;;11.20;81.90;;;;;;5070677;28;20403;-76
2023/04/29 09:08:11;;;;;;;61.65;33.88;;;11.20;81.70;;;;;;5071320;28;20423;-75
2023/04/29 09:10:38;;;;;;;54.13;30.70;;;11.30;83.00;;;;;;5070625;28;20386;-73
2023/04/29 09:13:04;;;;;;;53.55;28.80;;;11.40;81.90;;;;;;5073459;28;20388;-73
2023/04/29 09:15:35;;;;;;;57.42;30.38;;;11.30;81.90;;;;;;5072602;28;20532;-74
2023/04/29 09:18:01;;;;;;;51.35;30.83;;;11.20;83.30;;;;;;5072801;28;20517;-72
2023/04/29 09:20:28;;;;;;;55.23;31.93;;;11.20;84.00;;;;;;5071878;28;20376;-73
2023/04/29 09:22:55;;;;;;;55.67;31.85;;;11.20;83.30;;;;;;5070767;28;20388;-72
2023/04/29 09:25:22;;;;;;;52.83;31.63;;;11.30;82.50;;;;;;5071457;28;20404;-74
2023/04/29 09:27:47;;;;;;;57.08;30.13;;;11.50;81.80;;;;;;5071459;28;20380;-74
2023/04/29 09:30:15;;;;;;;52.80;31.10;;;11.50;80.80;;;;;;5071618;28;20380;-74
2023/04/29 09:32:44;;;;;;;56.60;30.55;;;11.50;80.20;;;;;;5071062;28;20386;-73
2023/04/29 09:35:24;;;;;;;51.40;29.37;;;11.50;80.70;;;;;;5071154;28;20390;-73
2023/04/29 09:37:52;;;;;;;54.50;28.30;;;11.50;79.70;;;;;;5071546;28;20725;-73
2023/04/29 09:40:33;;;;;;;60.45;31.45;;;11.40;80.60;;;;;;5053183;28;20424;-73
2023/04/29 09:42:59;;;;;;;63.35;35.28;;;11.30;81.30;;;;;;5053173;28;20383;-74
2023/04/29 09:45:40;;;;;;;65.60;35.83;;;11.30;81.90;;;;;;5071900;28;20768;-74
2023/04/29 09:48:07;;;;;;;70.22;39.25;;;11.30;82.20;;;;;;5071298;28;20380;-73
2023/04/29 09:50:36;;;;;;;73.75;41.17;;;11.50;81.40;;;;;;5070933;28;20441;-74
2023/04/29 09:53:01;;;;;;;74.72;41.97;;;11.60;77.80;;;;;;5071959;28;20387;-75
2023/04/29 09:55:28;;;;;;;75.63;43.15;;;11.60;78.60;;;;;;5071682;28;20471;-73
2023/04/29 09:57:54;;;;;;;83.70;43.45;;;11.70;77.20;;;;;;5053547;28;20907;-75
2023/04/29 10:00:19;;;;;;;87.63;47.25;;;11.70;76.60;;;;;;5071492;28;20384;-74
2023/04/29 10:02:47;;;;;;;83.57;45.08;;;11.80;76.50;;;;;;5071017;28;20388;-73
2023/04/29 10:05:14;;;;;;;91.43;49.35;;;11.80;75.30;;;;;;5072084;28;20453;-74
2023/04/29 10:07:40;;;;;;;88.15;48.70;;;11.90;74.90;;;;;;5072251;28;20780;-74
2023/04/29 10:10:08;;;;;;;83.63;45.65;;;11.90;75.30;;;;;;5067879;28;20498;-74
2023/04/29 10:12:38;;;;;;;77.45;44.10;;;12.00;72.00;;;;;;5083978;28;20392;-73
2023/04/29 10:15:26;;;;;;;85.40;44.67;;;12.00;72.00;;;;;;5076145;28;20751;-74
2023/04/29 10:18:02;;;;;;;82.97;44.80;;;12.00;73.30;;;;;;5070550;28;20399;-76
2023/04/29 10:20:28;;;;;;;83.90;46.63;;;12.00;73.20;;;;;;5070800;28;20395;-73
2023/04/29 10:22:55;;;;;;;80.00;45.35;;;12.20;74.10;;;;;;5069890;28;20470;-74
2023/04/29 10:25:23;;;;;;;83.18;42.63;;;12.40;70.60;;;;;;5070631;28;20477;-75
2023/04/29 10:27:53;;;;;;;80.40;43.80;;;12.60;67.90;;;;;;5070527;28;20870;-73
2023/04/29 10:30:19;;;;;;;73.80;40.00;;;12.70;67.70;;;;;;5070363;28;20467;-74
2023/04/29 10:32:47;;;;;;;68.50;37.67;;;12.70;63.50;;;;;;5069935;28;20384;-73
2023/04/29 10:35:14;;;;;;;64.97;36.33;;;12.70;64.00;;;;;;5070422;28;20894;-74
2023/04/29 10:37:42;;;;;;;61.00;34.97;;;12.50;63.60;;;;;;5070281;28;20990;-73
2023/04/29 10:40:16;;;;;;;59.67;35.42;;;12.50;64.50;;;;;;5070318;28;20380;-73
2023/04/29 10:42:44;;;;;;;67.63;36.57;;;12.50;64.90;;;;;;5069795;28;20463;-73
2023/04/29 10:45:26;;;;;;;63.17;34.95;;;12.80;63.60;;;;;;5052113;28;20400;-74
2023/04/29 10:50:33;;;;;;;53.45;30.65;;;13.10;57.80;;;;;;5070382;28;20405;-73
2023/04/29 10:53:03;;;;;;;47.88;29.50;;;13.30;56.40;;;;;;5070880;28;20670;-74
2023/04/29 10:55:30;;;;;;;50.75;29.20;;;13.30;55.50;;;;;;5071092;28;20406;-74
2023/04/29 10:57:56;;;;;;;51.42;30.25;;;13.30;54.70;;;;;;5070921;28;20385;-74
2023/04/29 11:00:29;;;;;;;46.80;28.45;;;13.00;56.20;;;;;;5070397;28;20449;-74
2023/04/29 11:03:00;;;;;;;51.28;29.42;;;13.00;56.70;;;;;;5070153;28;20475;-74
2023/04/29 11:05:35;;;;;;;51.27;28.50;;;13.10;57.00;;;;;;5070365;28;20841;-73
2023/04/29 11:08:23;;;;;;;49.58;29.13;;;13.40;52.50;;;;;;5070152;28;20380;-73
2023/04/29 11:10:52;;;;;;;52.92;28.30;;;13.90;52.20;;;;;;5070726;28;20376;-72
2023/04/29 11:13:25;;;;;;;47.45;28.70;;;14.30;46.10;;;;;;5070084;28;20418;-74
2023/04/29 11:16:11;;;;;;;45.75;28.92;;;14.80;43.50;;;;;;5069995;28;20880;-74
2023/04/29 11:19:03;;;;;;;47.22;27.50;;;14.90;40.90;;;;;;5069867;28;20399;-73
2023/04/29 11:21:29;;;;;;;47.90;27.92;;;15.00;38.90;;;;;;5069989;28;20384;-75
2023/04/29 11:23:56;;;;;;;50.20;28.80;;;14.60;42.10;;;;;;5068950;28;20407;-75
2023/04/29 11:26:23;;;;;;;50.72;29.85;;;14.80;41.20;;;;;;5074277;28;20423;-74
2023/04/29 11:28:51;;;;;;;45.53;28.30;;;14.90;42.50;;;;;;5074138;28;20504;-74
2023/04/29 11:31:16;;;;;;;47.25;27.60;;;15.20;39.60;;;;;;5073571;28;20810;-74
2023/04/29 11:33:42;;;;;;;51.40;29.73;;;15.10;37.40;;;;;;5073643;28;20483;-74
2023/04/29 11:36:10;;;;;;;50.25;29.17;;;14.80;40.50;;;;;;5073914;28;20379;-74
2023/04/29 11:38:39;;;;;;;45.72;27.20;;;14.80;39.80;;;;;;5073487;28;20437;-74
2023/04/29 11:41:05;;;;;;;47.08;29.05;;;14.80;40.30;;;;;;5073068;28;20383;-73
2023/04/29 11:43:30;;;;;;;49.08;28.98;;;15.20;38.40;;;;;;5073156;28;20939;-74
2023/04/29 11:45:56;;;;;;;57.43;30.50;;;15.60;38.50;;;;;;5073367;28;20404;-73
2023/04/29 11:48:23;;;;;;;47.37;29.20;;;16.00;35.60;;;;;;5073299;28;20388;-74
2023/04/29 11:50:55;;;;;;;52.47;30.67;;;16.30;32.50;;;;;;5073761;28;20454;-73
2023/04/29 11:53:24;;;;;;;51.45;30.58;;;16.20;33.00;;;;;;5053665;28;20381;-73
2023/04/29 11:55:52;;;;;;;49.03;31.48;;;16.20;32.40;;;;;;5053185;28;20943;-72
2023/04/29 11:58:20;;;;;;;47.95;29.42;;;16.50;32.20;;;;;;5063718;28;20395;-75
2023/04/29 12:00:49;;;;;;;54.63;32.00;;;16.90;29.00;;;;;;5073762;28;20380;-74
2023/04/29 12:03:19;;;;;;;51.95;32.78;;;17.00;28.80;;;;;;5073056;28;20466;-74
2023/04/29 12:05:55;;;;;;;43.47;28.85;;;16.90;30.50;;;;;;5071076;28;21184;-74
2023/04/29 12:08:26;;;;;;;46.78;29.45;;;17.00;28.80;;;;;;5070836;28;20837;-74
2023/04/29 12:10:53;;;;;;;48.63;31.98;;;16.60;29.70;;;;;;5074145;28;20398;-74
2023/04/29 12:13:19;;;;;;;48.50;30.30;;;16.50;30.60;;;;;;5068042;28;20514;-74
2023/04/29 12:15:46;;;;;;;47.72;30.88;;;17.10;28.60;;;;;;5075207;28;20403;-74
2023/04/29 12:18:13;;;;;;;47.33;28.63;;;17.40;27.30;;;;;;5071908;28;20433;-72
2023/04/29 12:20:40;;;;;;;42.28;26.48;;;17.60;26.00;;;;;;5070470;28;20699;-73
2023/04/29 12:23:22;;;;;;;41.55;27.23;;;17.70;24.60;;;;;;5067240;28;20380;-73
2023/04/29 12:25:59;;;;;;;41.95;27.27;;;18.00;24.30;;;;;;5073856;28;20395;-74
2023/04/29 12:28:25;;;;;;;42.00;28.23;;;18.10;24.10;;;;;;5088339;28;20396;-72